Latest Weather Observations for Goulburn Airport

IDN60801

Issued at 8:32 pm EST Sunday 19 April 2015 (issued every 30 minutes, with the page automatically refreshed every 10 minutes)

About weather observations | Map of weather stations | Latest weather observations for NSW | Other Formats
Station Details ID: 070330 Name: GOULBURN AIRPORT AWS Lat: -34.81 Lon: 149.73 Height: 640.0 m
Data from the previous 72 hours. | See also: Recent months at Goulburn Airport
Date/Time
EST
Temp
°C
App
Temp
°C
Dew
Point
Rel
Hum
%
Delta-T
°C
Wind Press
QNH
hPa
Press
MSL
hPa
Rain
since 9 am
mm
Dir
 
Spd
km/h
Gust
km/h
Spd
kts
Gust
kts
19/08:00pm 7.3 4.3 6.2 93 0.5 SSW 11 13 6 7 1026.3 1025.6 5.0
19/07:30pm 7.3 4.7 6.1 92 0.6 SSW 9 13 5 7 1026.1 1025.4 5.0
19/07:00pm 7.4 3.9 5.5 88 0.9 S 13 19 7 10 1025.6 1024.9 4.8
19/06:30pm 7.3 3.1 5.9 91 0.7 SSE 17 22 9 12 1025.3 1024.5 4.8
19/06:00pm 7.3 2.8 6.1 92 0.6 SSE 19 26 10 14 1025.0 1024.2 4.4
19/05:30pm 7.5 2.9 6.6 94 0.4 SSE 20 26 11 14 1024.5 1023.8 4.4
19/05:05pm 7.4 2.8 6.5 94 0.4 SSE 20 26 11 14 1024.3 1023.6 4.2
19/05:00pm 7.4 2.4 6.3 93 0.5 SSE 22 26 12 14 1024.3 1023.6 4.2
19/04:36pm 7.4 2.4 6.3 93 0.5 SSE 22 32 12 17 1024.0 1023.2 3.8
19/04:30pm 7.3 1.8 6.1 92 0.6 SSE 24 32 13 17 1024.0 1023.2 3.6
19/04:00pm 7.6 0.7 6.5 93 0.5 SSE 32 39 17 21 1023.3 1022.5 3.6
19/03:53pm 7.8 1.4 6.9 94 0.4 S 30 39 16 21 1023.0 1022.3 3.6
19/03:30pm 8.3 1.4 7.1 92 0.6 SSE 33 43 18 23 1022.5 1021.7 2.8
19/03:15pm 9.6 3.3 7.5 87 1.0 SSW 30 48 16 26 1021.8 1021.0 1.6
19/03:12pm 10.4 5.8 8.3 87 1.1 SW 22 41 12 22 1021.7 1020.9 1.6
19/03:07pm 11.5 8.3 9.8 89 0.9 WSW 17 22 9 12 1021.4 1020.7 1.6
19/03:00pm 11.8 9.4 10.0 89 0.9 WSW 13 20 7 11 1021.3 1020.5 1.6
19/02:30pm 12.1 8.0 10.0 87 1.1 W 22 33 12 18 1020.8 1020.0 0.6
19/02:00pm 14.8 11.5 9.4 70 2.9 NW 17 22 9 12 1020.4 1019.6 0.2
19/01:30pm 14.4 11.5 9.6 73 2.6 NW 15 19 8 10 1020.4 1019.6 0.2
19/01:00pm 14.3 11.0 9.5 73 2.5 WNW 17 20 9 11 1020.6 1019.8 0.0
19/12:30pm 14.6 10.9 9.6 72 2.7 WNW 19 26 10 14 1020.7 1019.9 0.0
19/12:00pm 14.7 12.0 9.1 69 2.9 WNW 13 19 7 10 1020.8 1020.0 0.0
19/11:30am 14.5 11.2 9.7 73 2.6 WNW 17 22 9 12 1021.2 1020.4 0.0
19/11:00am 13.9 10.2 9.3 74 2.4 W 19 26 10 14 1021.1 1020.3 0.0
19/10:51am 14.5 11.4 10.3 76 2.3 WNW 17 26 9 14 1021.1 1020.3 0.0
19/10:30am 14.1 10.7 9.3 73 2.5 W 17 22 9 12 1021.1 1020.3 0.0
19/10:10am 13.3 9.3 9.0 75 2.2 W 20 28 11 15 1021.0 1020.2 0.0
19/10:00am 13.3 9.0 9.2 76 2.1 W 22 28 12 15 1020.8 1020.0 0.0
19/09:30am 13.5 8.3 9.0 74 2.4 W 26 33 14 18 1020.6 1019.8 0.0
19/09:00am 12.8 8.0 8.9 77 2.0 W 24 32 13 17 1020.5 1019.7 5.2
19/08:30am 12.2 7.9 9.2 82 1.6 W 22 32 12 17 1020.4 1019.6 5.2
19/08:00am 11.3 7.5 9.0 86 1.2 W 19 22 10 12 1019.7 1018.9 5.2
19/07:30am 10.5 7.4 8.8 89 0.9 WNW 15 22 8 12 1019.6 1018.8 5.2
19/07:00am 9.5 7.0 8.4 93 0.6 WSW 11 19 6 10 1018.9 1018.1 5.2
19/06:37am 8.6 5.5 7.4 92 0.6 NW 13 17 7 9 1018.8 1018.0 5.2
19/06:30am 8.8 6.2 7.6 92 0.6 NW 11 17 6 9 1018.7 1017.9 5.2
19/06:00am 9.6 8.5 8.4 92 0.6 ESE 4 6 2 3 1018.0 1017.2 5.2
19/05:53am 9.3 7.7 7.9 91 0.7 WSW 6 9 3 5 1017.9 1017.1 5.2
19/05:30am 9.6 6.0 8.2 91 0.7 WNW 17 20 9 11 1017.3 1016.4 5.2
19/05:00am 9.9 6.0 8.5 91 0.7 WNW 19 26 10 14 1017.0 1016.1 5.2
19/04:30am 10.3 6.5 8.9 91 0.7 WNW 19 24 10 13 1016.6 1015.7 5.2
19/04:02am 10.9 7.0 9.5 91 0.7 WNW 20 26 11 14 1016.3 1015.5 5.0
19/04:00am 10.9 7.0 9.5 91 0.7 WNW 20 26 11 14 1016.3 1015.5 5.0
19/03:30am 11.7 8.6 10.4 92 0.7 WNW 17 24 9 13 1016.2 1015.4 5.0
19/03:00am 12.3 8.8 10.9 91 0.8 W 20 30 11 16 1015.9 1015.0 5.0
19/02:30am 13.1 9.1 11.7 91 0.8 W 24 39 13 21 1015.8 1014.9 5.0
19/02:00am 13.8 11.5 13.0 95 0.5 WNW 17 20 9 11 1015.8 1014.9 5.0
19/01:30am 13.8 11.5 12.9 94 0.5 NW 17 20 9 11 1015.9 1015.0 4.8
19/01:00am 14.3 12.6 12.3 88 1.1 NW 13 20 7 11 1016.1 1015.3 4.8
19/12:30am 14.2 13.8 12.4 89 1.0 NW 6 9 3 5 1016.1 1015.3 4.8
19/12:22am 14.0 13.5 12.2 89 1.0 NNW 6 9 3 5 1016.0 1015.2 4.8
19/12:00am 14.3 12.1 12.2 87 1.2 WNW 15 24 8 13 1015.9 1015.0 4.8
 
Date/Time
EST
Temp
°C
App
Temp
°C
Dew
Point
Rel
Hum
%
Delta-T
°C
Wind Press
QNH
hPa
Press
MSL
hPa
Rain
since 9 am
mm
Dir
 
Spd
km/h
Gust
km/h
Spd
kts
Gust
kts
18/11:30pm 14.3 11.5 12.5 89 1.0 NW 19 24 10 13 1015.8 1014.9 4.8
18/11:22pm 14.5 12.1 12.7 89 1.0 NW 17 22 9 12 1015.7 1014.8 4.8
18/11:00pm 14.6 11.6 12.6 88 1.1 WNW 20 30 11 16 1015.6 1014.7 4.8
18/10:30pm 14.6 13.1 13.0 90 0.9 WNW 13 19 7 10 1015.9 1015.0 4.8
18/10:27pm 14.6 13.1 13.1 91 0.9 NW 13 19 7 10 1015.9 1015.0 4.8
18/10:25pm 14.7 13.2 13.1 90 0.9 NW 13 19 7 10 1016.0 1015.2 4.8
18/10:00pm 14.7 11.9 13.2 91 0.9 NW 20 26 11 14 1016.7 1015.8 4.8
18/09:30pm 14.9 13.2 13.6 92 0.7 NW 15 20 8 11 1015.9 1015.0 4.8
18/09:00pm 15.1 12.5 13.8 92 0.8 W 20 28 11 15 1016.2 1015.4 4.8
18/08:30pm 15.5 12.6 13.9 90 0.9 W 22 32 12 17 1015.7 1014.8 4.0
18/08:16pm 16.0 14.3 14.7 92 0.8 WNW 17 20 9 11 1015.6 1014.7 3.2
18/08:11pm 16.1 14.4 14.6 91 0.9 WNW 17 22 9 12 1015.5 1014.6 2.4
18/08:00pm 16.5 14.3 14.5 88 1.2 NW 19 22 10 12 1015.5 1014.6 1.4
18/07:50pm 16.8 14.0 14.4 86 1.4 NW 22 32 12 17 1015.5 1014.6 1.2
18/07:30pm 16.9 13.4 14.4 85 1.5 NNW 26 35 14 19 1015.4 1014.5 1.2
18/07:00pm 16.8 14.7 14.6 87 1.3 NNW 19 26 10 14 1014.7 1013.9 1.2
18/06:30pm 16.9 16.1 15.1 89 1.1 NW 13 19 7 10 1014.9 1014.0 1.2
18/06:00pm 17.8 16.2 14.9 83 1.7 NW 17 20 9 11 1014.9 1014.0 0.4
18/05:30pm 19.1 17.7 14.4 74 2.8 WNW 15 22 8 12 1014.2 1013.3 0.0
18/05:00pm 19.7 18.2 14.3 71 3.2 NW 15 20 8 11 1013.9 1013.0 0.0
18/04:30pm 20.2 18.7 14.3 69 3.5 NW 15 19 8 10 1014.2 1013.3 0.0
18/04:00pm 20.5 18.1 14.4 68 3.7 NNW 20 28 11 15 1014.2 1013.3 0.0
18/03:30pm 20.7 17.4 14.1 66 3.9 NW 24 32 13 17 1014.5 1013.6 0.0
18/03:00pm 20.7 16.9 13.6 64 4.2 NW 26 35 14 19 1014.9 1014.0 0.0
18/02:30pm 21.1 17.1 14.0 64 4.2 NW 28 35 15 19 1014.9 1014.0 0.0
18/02:00pm 21.3 16.3 14.0 63 4.4 NW 33 43 18 23 1015.2 1014.3 0.0
18/01:30pm 21.5 18.3 14.2 63 4.4 NW 24 35 13 19 1015.6 1014.7 0.0
18/01:00pm 20.9 17.0 14.3 66 4.0 NW 28 39 15 21 1016.1 1015.3 0.0
18/12:30pm 20.2 15.7 13.9 67 3.7 NW 30 43 16 23 1016.6 1015.7 0.0
18/12:00pm 20.0 15.5 13.7 67 3.7 NW 30 39 16 21 1017.2 1016.3 0.0
18/11:30am 20.2 16.0 13.4 65 4.0 NW 28 37 15 20 1017.8 1017.0 0.0
18/11:00am 20.4 17.4 13.6 65 4.0 NW 22 32 12 17 1018.1 1017.3 0.0
18/10:30am 20.2 16.0 13.6 66 3.9 NW 28 41 15 22 1018.3 1017.4 0.0
18/10:00am 20.3 16.9 13.7 66 3.9 NNW 24 35 13 19 1018.4 1017.5 0.0
18/09:30am 19.8 17.3 14.0 69 3.4 NNW 20 30 11 16 1018.7 1017.9 0.0
18/09:00am 19.2 17.4 14.5 74 2.8 NNW 17 24 9 13 1019.1 1018.3 5.6
18/08:30am 18.6 16.3 14.1 75 2.7 N 19 24 10 13 1019.2 1018.4 5.6
18/08:00am 18.3 16.7 14.0 76 2.5 NNW 15 24 8 13 1019.2 1018.4 5.6
18/07:30am 18.1 16.1 14.0 77 2.4 NW 17 24 9 13 1019.0 1018.2 5.6
18/07:00am 17.6 15.0 13.9 79 2.2 NNW 20 32 11 17 1018.1 1017.3 5.6
18/06:30am 17.5 13.7 13.6 78 2.3 NNW 26 33 14 18 1017.7 1016.9 5.6
18/06:00am 16.9 14.4 13.6 81 1.9 N 19 24 10 13 1017.5 1016.7 5.6
18/05:30am 16.6 15.0 13.9 84 1.6 N 15 20 8 11 1017.4 1016.6 5.6
18/05:00am 16.5 15.2 13.8 84 1.6 N 13 17 7 9 1017.4 1016.6 5.6
18/04:30am 15.6 14.3 13.8 89 1.0 NNE 13 15 7 8 1017.4 1016.6 5.6
18/04:00am 16.2 15.1 14.4 89 1.1 N 13 15 7 8 1017.4 1016.6 5.6
18/03:30am 16.4 14.7 14.8 90 0.9 N 17 20 9 11 1017.5 1016.7 5.6
18/03:00am 16.4 15.6 15.1 92 0.8 N 13 17 7 9 1017.6 1016.8 5.6
18/02:30am 14.7 14.2 13.7 94 0.6 NNE 9 11 5 6 1017.7 1016.9 5.6
18/02:00am 15.1 14.7 14.1 94 0.6 NNE 9 11 5 6 1018.6 1017.7 5.6
18/01:30am 15.6 17.1 14.6 94 0.6 CALM 0 0 0 0 1019.0 1018.2 5.6
18/01:00am 16.0 16.2 14.7 92 0.8 N 7 13 4 7 1019.4 1018.6 5.6
18/12:30am 16.1 16.1 15.1 94 0.6 NNE 9 13 5 7 1019.7 1018.9 5.6
18/12:00am 16.1 15.3 15.1 94 0.6 NNE 13 15 7 8 1020.0 1019.1 5.6
 
Date/Time
EST
Temp
°C
App
Temp
°C
Dew
Point
Rel
Hum
%
Delta-T
°C
Wind Press
QNH
hPa
Press
MSL
hPa
Rain
since 9 am
mm
Dir
 
Spd
km/h
Gust
km/h
Spd
kts
Gust
kts
17/11:35pm 15.9 15.5 15.1 95 0.5 NE 11 15 6 8 1020.3 1019.5 5.6
17/11:30pm 15.8 15.7 15.0 95 0.5 NE 9 13 5 7 1020.4 1019.6 5.6
17/11:20pm 15.7 15.6 14.9 95 0.5 NE 9 11 5 6 1020.6 1019.8 5.6
17/11:00pm 15.8 15.0 15.0 95 0.5 NE 13 15 7 8 1020.9 1020.1 5.6
17/10:40pm 15.6 14.7 14.8 95 0.5 NNE 13 15 7 8 1021.0 1020.2 5.6
17/10:30pm 15.4 14.8 14.6 95 0.5 NNE 11 15 6 8 1021.1 1020.3 5.6
17/10:00pm 15.0 14.6 14.2 95 0.5 NE 9 11 5 6 1021.3 1020.5 5.6
17/09:30pm 14.7 14.2 13.7 94 0.6 NNE 9 9 5 5 1021.7 1020.9 5.6
17/09:25pm 14.9 14.9 14.1 95 0.5 NNE 7 9 4 5 1021.7 1020.9 5.6
17/09:03pm 14.9 14.5 14.1 95 0.5 NNE 9 13 5 7 1021.8 1021.0 5.6
17/09:00pm 15.0 14.6 14.2 95 0.5 NNE 9 13 5 7 1021.8 1021.0 5.6
17/08:30pm 15.0 14.6 14.2 95 0.5 NE 9 13 5 7 1021.8 1021.0 5.6
17/08:23pm 15.0 14.6 14.2 95 0.5 NE 9 11 5 6 1021.9 1021.1 5.6
17/08:00pm 14.9 15.1 14.1 95 0.5 NNE 6 7 3 4 1022.1 1021.3 5.6
17/07:30pm 14.9 14.6 14.3 96 0.4 NNE 9 11 5 6 1022.2 1021.4 5.6
17/07:00pm 14.6 14.0 13.6 94 0.6 NNE 9 11 5 6 1022.1 1021.3 5.6
17/06:30pm 15.0 14.6 14.0 94 0.6 N 9 9 5 5 1022.0 1021.2 5.6
17/06:00pm 15.4 15.1 14.4 94 0.6 N 9 9 5 5 1021.7 1020.9 5.6
17/05:30pm 15.8 16.0 14.7 93 0.6 ENE 7 9 4 5 1021.1 1020.3 5.6
17/05:00pm 15.7 15.8 14.4 92 0.8 NNE 7 9 4 5 1021.4 1020.7 5.4
17/04:30pm 15.9 14.9 14.6 92 0.8 N 13 17 7 9 1021.8 1021.0 5.4
17/04:00pm 16.4 15.3 15.3 93 0.7 N 15 20 8 11 1022.2 1021.4 5.0
17/03:30pm 16.8 17.0 15.7 93 0.7 NNW 9 11 5 6 1022.5 1021.7 4.2
17/03:00pm 16.8 16.1 15.5 92 0.8 NNW 13 17 7 9 1022.8 1022.1 3.8
17/02:30pm 16.8 16.8 15.3 91 0.9 N 9 15 5 8 1022.6 1021.8 3.6
17/02:00pm 16.7 16.0 15.4 92 0.8 NNW 13 19 7 10 1022.8 1022.1 3.2
17/01:30pm 16.8 16.5 15.5 92 0.8 N 11 15 6 8 1022.9 1022.2 2.4
17/01:00pm 17.0 16.0 15.5 91 0.9 N 15 19 8 10 1023.4 1022.6 2.0
17/12:30pm 17.4 16.7 15.4 88 1.2 N 13 17 7 9 1023.9 1023.1 1.4
17/12:00pm 17.3 17.1 15.8 91 0.9 N 11 15 6 8 1024.3 1023.6 1.4
17/11:30am 17.0 16.5 16.0 94 0.6 NNE 13 15 7 8 1024.9 1024.1 1.4
17/11:09am 16.5 15.8 15.5 94 0.6 NNE 13 17 7 9 1025.3 1024.5 1.4
17/11:00am 16.4 16.2 15.6 95 0.5 NNE 11 17 6 9 1025.3 1024.5 1.4
17/10:48am 16.4 16.2 15.6 95 0.5 NNE 11 17 6 9 1025.3 1024.5 1.4
17/10:30am 16.1 15.4 15.3 95 0.5 NE 13 17 7 9 1025.4 1024.6 1.4
17/10:26am 16.1 15.7 15.3 95 0.5 NE 11 17 6 9 1025.4 1024.6 1.2
17/10:00am 15.9 15.0 14.9 94 0.6 NE 13 17 7 9 1025.8 1025.1 0.6
17/09:43am 16.0 14.7 14.9 93 0.7 NE 15 19 8 10 1026.0 1025.3 0.2
17/09:30am 15.9 14.6 14.8 93 0.7 NE 15 19 8 10 1026.0 1025.3 0.0
17/09:00am 15.9 15.0 14.8 93 0.6 NE 13 19 7 10 1026.0 1025.3 1.8
17/08:30am 15.6 15.3 14.5 93 0.6 NE 9 13 5 7 1025.9 1025.2 1.8
17/08:00am 15.4 15.4 14.3 93 0.6 ENE 7 9 4 5 1025.8 1025.1 1.8
17/07:30am 15.2 15.2 14.2 94 0.6 ENE 7 9 4 5 1025.5 1024.8 1.8
17/07:00am 15.1 14.7 14.1 94 0.6 ENE 9 11 5 6 1025.3 1024.5 1.8
17/06:30am 15.1 15.1 14.1 94 0.6 E 7 13 4 7 1025.0 1024.2 1.6
17/06:00am 15.0 16.2 13.9 93 0.6 CALM 0 0 0 0 1024.7 1024.0 1.6
17/05:30am 15.0 15.1 13.9 93 0.6 E 6 9 3 5 1024.6 1023.9 1.6
17/05:00am 15.1 16.4 14.0 93 0.6 CALM 0 0 0 0 1024.7 1024.0 1.4
17/04:30am 15.1 15.3 14.1 94 0.6 ENE 6 11 3 6 1025.0 1024.2 1.4
17/04:00am 15.0 14.2 14.0 94 0.6 ENE 11 15 6 8 1024.1 1023.4 1.2
17/03:42am 14.9 14.1 13.9 94 0.6 ENE 11 19 6 10 1023.8 1023.0 1.2
17/03:30am 14.8 13.9 13.8 94 0.6 ENE 11 13 6 7 1023.8 1023.0 1.2
17/03:00am 14.9 14.8 13.9 94 0.6 E 7 9 4 5 1024.7 1024.0 0.8
17/02:43am 14.8 13.9 13.8 94 0.6 ESE 11 13 6 7 1024.7 1024.0 0.6
17/02:30am 14.9 14.4 13.8 93 0.6 SE 9 11 5 6 1025.2 1024.4 0.4
17/02:00am 15.3 14.1 14.0 92 0.8 SE 13 15 7 8 1025.5 1024.8 0.0
17/01:30am 15.4 15.0 14.1 92 0.8 SSE 9 11 5 6 1025.6 1024.9 0.0
17/01:00am 15.3 15.2 14.0 92 0.8 SSE 7 9 4 5 1025.6 1024.9 0.0
17/12:30am 15.2 15.3 13.9 92 0.8 SE 6 9 3 5 1025.6 1024.9 0.0
17/12:00am 14.9 15.0 13.8 93 0.6 NNE 6 7 3 4 1025.5 1024.8 0.0
 
Date/Time
EST
Temp
°C
App
Temp
°C
Dew
Point
Rel
Hum
%
Delta-T
°C
Wind Press
QNH
hPa
Press
MSL
hPa
Rain
since 9 am
mm
Dir
 
Spd
km/h
Gust
km/h
Spd
kts
Gust
kts
16/11:30pm 14.4 14.2 13.1 92 0.7 E 6 7 3 4 1025.5 1024.8 0.0
16/11:00pm 14.5 13.6 12.7 89 1.0 ENE 9 13 5 7 1025.7 1025.0 0.0
16/10:30pm 15.2 14.7 13.7 91 0.9 NE 9 9 5 5 1025.8 1025.1 0.0
16/10:00pm 15.1 14.8 13.3 89 1.0 ESE 7 9 4 5 1025.8 1025.1 0.0
16/09:30pm 15.9 15.9 14.1 89 1.1 ENE 7 11 4 6 1025.8 1025.1 0.0
16/09:00pm 16.0 15.8 14.7 92 0.8 ESE 9 13 5 7 1025.6 1024.9 0.0

Other Formats:

Comma delimited format used in spreadsheet applications
http://www.bom.gov.au/fwo/IDN60801/IDN60801.95716.axf

JavaScript Object Notation format (JSON) in row-major order
http://www.bom.gov.au/fwo/IDN60801/IDN60801.95716.json